STI weather

Cibao International Airport
Santiago, Santiago de los Caballeros Province, Dominican Republic

Public forecast

Using degrees Celsius for public forecast. Weather courtesy of forecast.io.

METAR (pilot weather report)

Retrieved 2019/05/23 12:00 UTC (32 minutes ago):

MDST 231200Z 11004KT 9999 SCT018 SCT300 25/23 Q1015 NOSIG

TAF (pilot weather forecast)

Retrieved 2019/05/23 12:06 UTC (26 minutes ago):

TAF MDST 231000Z 2312/2412 13012KT 9999 SCT016 TEMPO 1312/1314 4000 BR BKN014